Time;durP1;ratioP1;P1;durP2;ratioP2;P2;SDS_P1;SDS_P2;PMS_P1;PMS_P2;Temp;Humidity;BMP_temperature;BMP_pressure;BME280_temperature;BME280_humidity;BME280_pressure;Samples;Min_cycle;Max_cycle;Signal;HPM_P1;HPM_P2
2023/06/11 00:02:25;;;;;;;3.58;1.90;;;21.00;55.50;;;;;;6120254;23;20052;-70
2023/06/11 00:05:11;;;;;;;6.10;2.13;;;20.90;55.70;;;;;;6119123;23;20014;-68
2023/06/11 00:08:00;;;;;;;5.03;2.20;;;20.90;55.90;;;;;;6119866;23;20089;-68
2023/06/11 00:10:46;;;;;;;6.88;2.33;;;20.90;56.10;;;;;;6119037;23;20006;-69
2023/06/11 00:13:32;;;;;;;4.43;2.15;;;20.80;56.40;;;;;;6118748;23;20554;-69
2023/06/11 00:16:18;;;;;;;4.60;2.00;;;20.80;56.50;;;;;;6122446;23;20013;-69
2023/06/11 00:19:04;;;;;;;5.53;2.45;;;20.70;56.60;;;;;;6119112;23;20010;-69
2023/06/11 00:21:50;;;;;;;6.22;2.30;;;20.70;56.80;;;;;;6120868;23;20006;-68
2023/06/11 00:24:36;;;;;;;7.45;2.33;;;20.60;57.00;;;;;;6119771;23;20014;-68
2023/06/11 00:27:22;;;;;;;4.38;2.38;;;20.60;57.10;;;;;;6119962;23;20018;-68
2023/06/11 00:30:09;;;;;;;3.58;2.15;;;20.50;57.20;;;;;;6120679;23;20020;-68
2023/06/11 00:32:54;;;;;;;3.22;1.90;;;20.50;57.40;;;;;;6122029;23;20377;-68
2023/06/11 00:35:40;;;;;;;3.05;2.05;;;20.50;57.60;;;;;;6120003;23;20518;-68
2023/06/11 00:38:28;;;;;;;2.95;1.88;;;20.40;57.70;;;;;;6121211;23;20084;-68
2023/06/11 00:41:14;;;;;;;3.40;2.00;;;20.40;57.90;;;;;;6120722;23;20017;-68
2023/06/11 00:44:02;;;;;;;4.35;1.92;;;20.30;58.10;;;;;;6120562;23;20025;-69
2023/06/11 00:46:51;;;;;;;3.85;2.40;;;20.20;58.20;;;;;;6121425;23;20006;-69
2023/06/11 00:49:37;;;;;;;5.53;2.25;;;20.20;58.30;;;;;;6119927;23;20014;-68
2023/06/11 00:52:23;;;;;;;5.50;3.00;;;20.20;58.40;;;;;;6119762;23;20021;-68
2023/06/11 00:55:11;;;;;;;3.65;2.05;;;20.10;58.50;;;;;;6119090;23;20041;-69
2023/06/11 00:57:57;;;;;;;5.20;2.30;;;20.10;58.60;;;;;;6121095;23;20010;-68
2023/06/11 01:00:47;;;;;;;4.03;2.30;;;20.00;58.70;;;;;;6119536;23;20010;-68
2023/06/11 01:03:33;;;;;;;3.17;1.90;;;20.00;58.90;;;;;;6120607;23;20093;-68
2023/06/11 01:06:21;;;;;;;4.55;1.88;;;20.00;58.90;;;;;;6119872;23;20009;-68
2023/06/11 01:09:08;;;;;;;3.78;2.25;;;19.90;59.00;;;;;;6101003;23;20046;-68
2023/06/11 01:11:58;;;;;;;5.30;2.50;;;19.90;59.10;;;;;;6121733;23;20356;-69
2023/06/11 01:14:44;;;;;;;3.50;2.15;;;19.90;59.30;;;;;;6120705;23;20092;-69
2023/06/11 01:18:06;;;;;;;4.30;2.05;;;19.80;59.40;;;;;;6118301;23;20107;-68
2023/06/11 01:21:08;;;;;;;3.72;2.45;;;19.80;59.40;;;;;;6099576;23;20437;-69
2023/06/11 01:24:21;;;;;;;2.65;1.90;;;19.70;59.60;;;;;;6120407;23;20026;-69
2023/06/11 01:27:18;;;;;;;3.83;2.47;;;19.60;59.60;;;;;;6121514;23;20101;-69
2023/06/11 01:30:06;;;;;;;6.60;2.45;;;19.60;59.80;;;;;;6120921;23;20014;-69
2023/06/11 01:32:53;;;;;;;3.97;2.13;;;19.60;59.80;;;;;;6121889;23;20067;-69
2023/06/11 01:35:39;;;;;;;4.78;1.83;;;19.50;59.90;;;;;;6119388;23;20023;-69
2023/06/11 01:38:30;;;;;;;5.75;2.17;;;19.50;60.00;;;;;;6119675;23;20025;-69
2023/06/11 01:41:16;;;;;;;3.35;1.80;;;19.40;60.20;;;;;;6121136;23;20450;-69
2023/06/11 01:44:02;;;;;;;4.22;2.63;;;19.40;60.20;;;;;;6120532;23;20017;-68
2023/06/11 01:46:48;;;;;;;3.58;1.98;;;19.40;60.40;;;;;;6121580;23;20010;-68
2023/06/11 01:49:34;;;;;;;3.55;2.10;;;19.40;60.40;;;;;;6116305;23;20018;-68
2023/06/11 01:52:20;;;;;;;4.30;2.40;;;19.30;60.50;;;;;;6120624;23;20452;-69
2023/06/11 01:55:07;;;;;;;4.95;2.58;;;19.30;60.60;;;;;;6119797;23;20515;-69
2023/06/11 01:57:53;;;;;;;2.90;2.00;;;19.20;60.70;;;;;;6121379;23;20033;-69
2023/06/11 02:00:39;;;;;;;5.70;2.47;;;19.20;60.90;;;;;;6119246;23;20488;-70
2023/06/11 02:03:26;;;;;;;3.53;2.20;;;19.10;60.90;;;;;;6117451;23;20407;-70
2023/06/11 02:06:11;;;;;;;4.80;2.00;;;19.10;61.00;;;;;;6118078;23;20009;-70
2023/06/11 02:08:57;;;;;;;4.55;1.95;;;19.10;61.10;;;;;;6118253;23;20392;-68
2023/06/11 02:11:43;;;;;;;8.70;2.13;;;19.10;61.10;;;;;;6122233;23;20010;-70
2023/06/11 02:14:29;;;;;;;4.85;2.08;;;19.00;61.20;;;;;;6121304;23;20096;-71
2023/06/11 02:17:15;;;;;;;4.70;1.88;;;19.00;61.30;;;;;;6121798;23;20017;-70
2023/06/11 02:20:05;;;;;;;6.50;2.25;;;19.00;61.40;;;;;;6100252;23;20013;-68
2023/06/11 02:22:51;;;;;;;3.30;2.00;;;18.90;61.40;;;;;;6121481;23;20025;-68
2023/06/11 02:25:37;;;;;;;4.03;2.60;;;18.90;61.50;;;;;;6121263;23;20017;-69
2023/06/11 02:28:23;;;;;;;3.42;2.13;;;18.90;61.70;;;;;;6121732;23;20454;-69
2023/06/11 02:31:09;;;;;;;3.60;2.25;;;18.90;61.90;;;;;;6121651;23;20471;-69
2023/06/11 02:33:55;;;;;;;3.13;2.13;;;18.80;61.90;;;;;;6120790;23;20081;-69
2023/06/11 02:36:41;;;;;;;4.97;2.00;;;18.90;62.10;;;;;;6120830;23;20021;-69
2023/06/11 02:39:27;;;;;;;3.85;2.55;;;18.80;62.20;;;;;;6121027;23;20013;-69
2023/06/11 02:42:13;;;;;;;4.18;1.73;;;18.70;62.30;;;;;;6121074;23;20010;-69
2023/06/11 02:44:59;;;;;;;5.53;2.78;;;18.70;62.40;;;;;;6120624;23;20384;-69
2023/06/11 02:47:45;;;;;;;4.13;2.67;;;18.60;62.50;;;;;;6122038;23;20472;-69
2023/06/11 02:50:31;;;;;;;5.40;2.10;;;18.60;62.60;;;;;;6122899;23;20095;-69
2023/06/11 02:53:17;;;;;;;7.03;2.85;;;18.60;62.70;;;;;;6123399;23;20102;-69
2023/06/11 02:56:03;;;;;;;3.83;2.17;;;18.50;62.70;;;;;;6122754;23;20052;-69
2023/06/11 02:58:49;;;;;;;3.63;2.15;;;18.50;62.80;;;;;;6122309;23;20444;-68
2023/06/11 03:01:35;;;;;;;3.50;2.22;;;18.40;62.80;;;;;;6121840;23;20049;-69
2023/06/11 03:04:21;;;;;;;4.05;2.38;;;18.40;62.90;;;;;;6122426;23;20022;-68
2023/06/11 03:07:07;;;;;;;6.05;2.38;;;18.40;63.00;;;;;;6113096;23;20022;-68
2023/06/11 03:09:53;;;;;;;10.27;2.30;;;18.30;63.10;;;;;;6093609;23;20021;-68
2023/06/11 03:12:39;;;;;;;3.83;2.30;;;18.30;63.20;;;;;;6094999;23;20067;-68
2023/06/11 03:15:25;;;;;;;3.83;2.08;;;18.30;63.20;;;;;;6091075;23;20014;-68
2023/06/11 03:18:11;;;;;;;3.47;2.30;;;18.30;63.50;;;;;;6093962;23;20014;-69
2023/06/11 03:20:57;;;;;;;2.83;1.92;;;18.30;63.50;;;;;;6091681;23;20014;-68
2023/06/11 03:23:42;;;;;;;4.60;2.10;;;18.30;63.40;;;;;;6089814;23;20054;-69
2023/06/11 03:26:28;;;;;;;4.63;2.08;;;18.20;63.40;;;;;;6090760;23;20080;-68
2023/06/11 03:29:14;;;;;;;4.28;2.17;;;18.20;63.60;;;;;;6093756;23;20019;-68
2023/06/11 03:32:00;;;;;;;4.43;2.28;;;18.10;63.60;;;;;;6094468;23;20021;-68
2023/06/11 03:34:46;;;;;;;3.10;2.20;;;18.10;63.80;;;;;;6093458;23;20011;-68
2023/06/11 03:37:32;;;;;;;4.05;2.20;;;18.10;63.80;;;;;;6093591;23;20014;-69
2023/06/11 03:40:18;;;;;;;4.65;1.83;;;18.10;63.80;;;;;;6089471;23;20136;-68
2023/06/11 03:43:04;;;;;;;4.22;2.00;;;18.10;63.90;;;;;;6093893;23;20022;-68
2023/06/11 03:45:50;;;;;;;4.70;2.05;;;18.10;64.10;;;;;;6093840;23;20463;-68
2023/06/11 03:48:36;;;;;;;3.65;1.77;;;18.00;64.00;;;;;;6092606;23;20519;-68
2023/06/11 03:51:22;;;;;;;6.30;2.20;;;18.10;64.10;;;;;;6071451;23;20093;-69
2023/06/11 03:54:08;;;;;;;3.38;2.28;;;18.10;64.20;;;;;;6092515;23;20356;-69
2023/06/11 03:56:54;;;;;;;4.47;2.30;;;18.10;64.20;;;;;;6092194;23;20010;-68
2023/06/11 03:59:39;;;;;;;4.03;2.20;;;18.10;64.30;;;;;;6092615;23;20238;-69
2023/06/11 04:02:26;;;;;;;5.05;1.95;;;18.10;64.20;;;;;;6090512;23;20393;-68
2023/06/11 04:05:12;;;;;;;5.22;2.00;;;18.00;64.30;;;;;;6089630;23;20014;-68
2023/06/11 04:07:58;;;;;;;5.00;2.10;;;18.00;64.30;;;;;;6113872;23;20407;-68
2023/06/11 04:10:44;;;;;;;2.90;1.80;;;18.00;64.50;;;;;;6122060;23;20529;-68
2023/06/11 04:13:30;;;;;;;3.30;1.80;;;18.00;64.40;;;;;;6120815;23;20014;-68
2023/06/11 04:16:17;;;;;;;2.80;1.90;;;18.00;64.50;;;;;;6122579;23;20101;-68
2023/06/11 04:19:03;;;;;;;5.07;2.55;;;18.00;64.60;;;;;;6121027;23;20021;-68
2023/06/11 04:21:49;;;;;;;7.35;2.08;;;17.90;64.80;;;;;;6122475;23;20014;-68
2023/06/11 04:24:35;;;;;;;3.15;2.28;;;17.90;64.80;;;;;;6122040;23;20024;-68
2023/06/11 04:27:21;;;;;;;6.32;1.98;;;17.90;65.00;;;;;;6120858;23;20343;-69
2023/06/11 04:30:09;;;;;;;3.78;1.90;;;17.90;64.80;;;;;;6121574;23;20009;-70
2023/06/11 04:32:54;;;;;;;3.70;1.80;;;17.90;64.90;;;;;;6123120;23;20021;-71
2023/06/11 04:35:40;;;;;;;6.40;2.22;;;18.00;65.10;;;;;;6121677;23;20009;-69
2023/06/11 04:38:28;;;;;;;3.30;1.92;;;18.00;65.20;;;;;;6120405;23;20509;-70
2023/06/11 04:41:14;;;;;;;4.05;1.83;;;18.10;65.20;;;;;;6121446;23;20068;-70
2023/06/11 04:44:00;;;;;;;4.03;2.20;;;18.10;65.30;;;;;;6121570;23;20081;-65
2023/06/11 04:46:47;;;;;;;5.35;1.80;;;18.10;65.20;;;;;;6122002;23;20017;-65
2023/06/11 04:49:33;;;;;;;3.75;1.67;;;18.10;65.30;;;;;;6120992;23;20427;-66
2023/06/11 04:52:21;;;;;;;2.67;1.75;;;18.10;65.40;;;;;;6121572;23;20332;-65
2023/06/11 04:55:09;;;;;;;5.95;2.50;;;18.10;65.40;;;;;;6122202;23;20020;-66
2023/06/11 04:57:56;;;;;;;2.90;2.22;;;18.10;65.50;;;;;;6122115;23;20021;-65
2023/06/11 05:00:46;;;;;;;5.50;2.10;;;18.20;65.60;;;;;;6122717;23;20018;-66
2023/06/11 05:03:36;;;;;;;4.72;2.20;;;18.20;65.60;;;;;;6121984;23;20037;-65
2023/06/11 05:06:23;;;;;;;4.32;2.47;;;18.20;65.50;;;;;;6098097;23;20014;-65
2023/06/11 05:09:09;;;;;;;3.33;1.63;;;18.20;65.60;;;;;;6090514;23;20026;-65
2023/06/11 05:11:55;;;;;;;5.32;2.20;;;18.20;65.60;;;;;;6090593;23;20006;-67
2023/06/11 05:14:42;;;;;;;4.47;1.80;;;18.30;65.70;;;;;;6090614;23;20389;-65
2023/06/11 05:17:28;;;;;;;3.45;1.75;;;18.30;65.70;;;;;;6090158;23;20014;-65
2023/06/11 05:20:14;;;;;;;6.40;2.05;;;18.30;65.70;;;;;;6089775;23;20042;-65
2023/06/11 05:23:02;;;;;;;4.60;2.10;;;18.40;65.70;;;;;;6092387;23;20110;-65
2023/06/11 05:25:50;;;;;;;2.75;2.25;;;18.30;65.70;;;;;;6089303;23;20015;-65
2023/06/11 05:28:36;;;;;;;6.80;2.17;;;18.40;65.80;;;;;;6091605;23;20018;-66
2023/06/11 05:31:23;;;;;;;9.45;2.78;;;18.40;65.90;;;;;;6090318;23;20042;-65
2023/06/11 05:34:10;;;;;;;3.45;1.83;;;18.40;65.70;;;;;;6089450;23;20014;-65
2023/06/11 05:36:55;;;;;;;3.30;1.80;;;18.40;65.80;;;;;;6090988;23;20056;-65
2023/06/11 05:39:41;;;;;;;4.65;2.03;;;18.50;66.00;;;;;;6090064;23;20397;-65
2023/06/11 05:42:27;;;;;;;3.25;2.15;;;18.60;66.10;;;;;;6089792;23;20106;-64
2023/06/11 05:45:13;;;;;;;4.00;2.10;;;18.60;66.00;;;;;;6091671;23;20014;-64
2023/06/11 05:48:00;;;;;;;6.43;2.00;;;18.60;66.10;;;;;;6091859;23;20009;-65
2023/06/11 05:50:46;;;;;;;3.83;2.15;;;18.70;66.10;;;;;;6090438;23;20006;-65
2023/06/11 05:53:31;;;;;;;5.18;2.17;;;18.80;66.00;;;;;;6091981;23;20018;-65
2023/06/11 05:56:17;;;;;;;4.35;2.38;;;18.80;66.00;;;;;;6091973;23;20083;-66
2023/06/11 05:59:03;;;;;;;5.72;2.50;;;18.80;66.00;;;;;;6092013;23;20487;-66
2023/06/11 06:01:50;;;;;;;5.20;1.65;;;18.90;66.00;;;;;;6089508;23;20017;-66
2023/06/11 06:04:35;;;;;;;4.32;2.00;;;18.90;66.00;;;;;;6090171;23;20460;-66
2023/06/11 06:07:21;;;;;;;3.75;2.28;;;19.00;66.10;;;;;;6104429;23;20128;-66
2023/06/11 06:10:08;;;;;;;8.95;2.78;;;19.10;66.00;;;;;;6120389;23;20010;-66
2023/06/11 06:12:53;;;;;;;5.38;2.50;;;19.20;66.00;;;;;;6122450;23;20086;-66
2023/06/11 06:15:41;;;;;;;5.22;2.08;;;19.20;66.00;;;;;;6119369;23;20041;-66
2023/06/11 06:18:28;;;;;;;4.50;2.15;;;19.20;65.90;;;;;;6120068;23;20010;-66
2023/06/11 06:21:14;;;;;;;5.18;2.10;;;19.30;66.10;;;;;;6120661;23;20010;-63
2023/06/11 06:24:00;;;;;;;9.57;2.63;;;19.30;66.00;;;;;;6123310;23;20026;-63
2023/06/11 06:26:47;;;;;;;5.80;2.20;;;19.50;66.10;;;;;;6124777;23;20033;-63
2023/06/11 06:29:33;;;;;;;7.15;2.58;;;19.50;66.10;;;;;;6121420;23;20010;-64
2023/06/11 06:32:19;;;;;;;8.23;2.90;;;19.60;65.90;;;;;;6121792;23;20339;-66
2023/06/11 06:35:08;;;;;;;2.95;1.80;;;19.70;65.80;;;;;;6122455;23;20017;-66
2023/06/11 06:37:54;;;;;;;5.30;2.20;;;19.70;65.80;;;;;;6124185;23;20014;-66
2023/06/11 06:40:40;;;;;;;4.22;2.17;;;19.80;65.70;;;;;;6122884;23;20444;-65
2023/06/11 06:43:26;;;;;;;3.65;1.92;;;19.80;65.50;;;;;;6121829;23;20022;-68
2023/06/11 06:46:12;;;;;;;4.50;2.65;;;19.90;65.30;;;;;;6121535;23;20101;-67
2023/06/11 06:48:58;;;;;;;4.82;2.40;;;20.00;65.10;;;;;;6122013;23;20396;-67
2023/06/11 06:51:44;;;;;;;3.33;2.08;;;20.00;65.00;;;;;;6121803;23;20017;-67
2023/06/11 06:54:30;;;;;;;4.65;2.60;;;20.10;65.30;;;;;;6119244;23;20092;-68
2023/06/11 06:57:17;;;;;;;5.15;2.33;;;20.20;65.20;;;;;;6122602;23;20010;-67
2023/06/11 07:00:04;;;;;;;7.25;2.80;;;20.30;65.10;;;;;;6101627;23;20009;-67
2023/06/11 07:02:50;;;;;;;3.75;2.65;;;20.40;64.80;;;;;;6122471;23;20096;-67
2023/06/11 07:05:36;;;;;;;4.35;2.80;;;20.40;64.90;;;;;;6121058;23;20040;-66
2023/06/11 07:08:22;;;;;;;5.03;2.55;;;20.40;64.70;;;;;;6095754;23;20532;-66
2023/06/11 07:11:08;;;;;;;7.80;2.72;;;20.50;64.60;;;;;;6090926;23;20034;-67
2023/06/11 07:13:54;;;;;;;3.55;2.10;;;20.50;64.60;;;;;;6092266;23;20421;-67
2023/06/11 07:16:40;;;;;;;4.55;2.80;;;20.60;64.40;;;;;;6090872;23;20476;-67
2023/06/11 07:19:26;;;;;;;5.05;2.25;;;20.70;64.40;;;;;;6090118;23;20429;-67
2023/06/11 07:22:12;;;;;;;5.70;2.58;;;20.80;64.30;;;;;;6091570;23;20089;-66
2023/06/11 07:25:00;;;;;;;5.88;2.90;;;20.90;64.20;;;;;;6091225;23;20024;-66
2023/06/11 07:27:46;;;;;;;6.07;2.63;;;21.00;64.20;;;;;;6090176;23;20516;-67
2023/06/11 07:30:33;;;;;;;3.90;2.65;;;21.10;64.40;;;;;;6091202;23;20029;-66
2023/06/11 07:33:19;;;;;;;4.50;2.47;;;21.20;64.30;;;;;;6090467;23;20029;-67
2023/06/11 07:36:05;;;;;;;7.38;2.88;;;21.30;63.90;;;;;;6091919;23;20018;-67
2023/06/11 07:38:51;;;;;;;5.40;2.95;;;21.40;64.00;;;;;;6089895;23;20052;-67
2023/06/11 07:41:37;;;;;;;4.95;2.63;;;21.40;63.30;;;;;;6089266;23;20036;-67
2023/06/11 07:44:23;;;;;;;3.00;2.28;;;21.40;63.10;;;;;;6089750;23;20030;-67
2023/06/11 07:47:09;;;;;;;7.07;2.95;;;21.50;62.90;;;;;;6092502;23;20022;-70
2023/06/11 07:49:55;;;;;;;4.13;2.40;;;21.50;63.10;;;;;;6090328;23;20020;-68
2023/06/11 07:52:41;;;;;;;3.92;2.42;;;21.60;63.30;;;;;;6092272;23;20015;-68
2023/06/11 07:55:27;;;;;;;4.70;2.90;;;21.60;62.90;;;;;;6089670;23;20014;-68
2023/06/11 07:58:12;;;;;;;4.55;2.22;;;21.70;62.80;;;;;;6090145;23;20010;-68
2023/06/11 08:00:58;;;;;;;4.82;2.47;;;21.80;62.80;;;;;;6090912;23;20023;-68
2023/06/11 08:03:44;;;;;;;4.28;2.50;;;21.90;62.70;;;;;;6090696;23;20026;-68
2023/06/11 08:06:30;;;;;;;6.88;2.67;;;22.00;62.60;;;;;;6090036;23;20591;-68
2023/06/11 08:09:17;;;;;;;3.42;1.90;;;22.10;62.60;;;;;;6119933;23;20356;-69
2023/06/11 08:12:07;;;;;;;3.35;2.13;;;22.20;62.70;;;;;;6118335;23;20041;-69
2023/06/11 08:14:53;;;;;;;3.40;2.08;;;22.20;62.10;;;;;;6122357;23;20006;-69
2023/06/11 08:17:39;;;;;;;6.75;3.03;;;22.30;62.10;;;;;;6098034;23;20380;-69
2023/06/11 08:20:25;;;;;;;5.72;2.63;;;22.40;62.00;;;;;;6120938;23;20010;-69
2023/06/11 08:23:12;;;;;;;4.38;2.33;;;22.50;62.00;;;;;;6123131;23;20026;-69
2023/06/11 08:25:58;;;;;;;5.47;2.85;;;22.50;61.80;;;;;;6120105;23;20419;-68
2023/06/11 08:28:44;;;;;;;5.97;2.45;;;22.60;61.60;;;;;;6100135;23;20061;-68
2023/06/11 08:31:31;;;;;;;5.18;2.45;;;22.60;61.30;;;;;;6122482;23;20436;-69
2023/06/11 08:34:17;;;;;;;3.63;2.35;;;22.60;61.00;;;;;;6122619;23;20455;-69
2023/06/11 08:37:03;;;;;;;6.00;2.78;;;22.70;61.40;;;;;;6120268;23;20325;-69
2023/06/11 08:39:49;;;;;;;9.20;3.70;;;22.80;61.00;;;;;;6120504;23;20073;-69
2023/06/11 08:42:35;;;;;;;6.50;2.83;;;22.80;60.80;;;;;;6120435;23;20093;-69
2023/06/11 08:45:21;;;;;;;4.72;2.30;;;22.90;60.80;;;;;;6121695;23;20010;-69
2023/06/11 08:48:09;;;;;;;5.65;2.97;;;22.90;60.80;;;;;;6121702;23;20057;-68
2023/06/11 08:50:55;;;;;;;5.85;2.97;;;23.00;60.50;;;;;;6121906;23;20336;-69
2023/06/11 08:53:41;;;;;;;6.53;3.67;;;23.00;60.30;;;;;;6119362;23;20400;-68
2023/06/11 08:56:28;;;;;;;3.50;2.50;;;23.00;60.70;;;;;;6103188;23;20010;-67
2023/06/11 08:59:13;;;;;;;6.80;2.60;;;23.00;60.50;;;;;;6099044;23;20010;-68
2023/06/11 09:02:00;;;;;;;6.10;2.47;;;23.10;60.30;;;;;;6119702;23;20010;-70
2023/06/11 09:04:47;;;;;;;5.78;2.92;;;23.20;60.20;;;;;;6123329;23;20077;-68
2023/06/11 09:07:33;;;;;;;8.65;2.80;;;23.30;60.30;;;;;;6104784;23;20511;-67
2023/06/11 09:10:20;;;;;;;7.38;2.85;;;23.30;60.30;;;;;;6090520;23;20029;-67
2023/06/11 09:13:07;;;;;;;7.03;2.53;;;23.30;60.30;;;;;;6069778;23;20159;-67
2023/06/11 09:15:55;;;;;;;4.57;2.65;;;23.40;60.60;;;;;;6093053;23;20010;-67
2023/06/11 09:18:43;;;;;;;6.38;3.35;;;23.50;60.50;;;;;;6091771;23;20070;-68
2023/06/11 09:21:29;;;;;;;3.55;2.60;;;23.50;60.30;;;;;;6090264;23;20125;-70
2023/06/11 09:24:17;;;;;;;8.95;3.53;;;23.60;60.20;;;;;;6091557;23;20085;-74
2023/06/11 09:27:06;;;;;;;4.32;2.75;;;23.70;59.90;;;;;;6068926;23;20516;-70
2023/06/11 09:29:52;;;;;;;5.03;3.30;;;23.80;60.30;;;;;;6092420;23;20026;-72
2023/06/11 09:32:42;;;;;;;6.63;2.92;;;23.80;60.10;;;;;;6092923;23;20062;-70
2023/06/11 09:35:28;;;;;;;5.88;3.00;;;23.90;60.00;;;;;;6093224;23;20493;-72
2023/06/11 09:38:15;;;;;;;5.10;3.28;;;24.00;59.80;;;;;;6091617;23;20011;-70
2023/06/11 09:41:05;;;;;;;7.75;3.45;;;24.00;59.90;;;;;;6092247;23;20444;-74
2023/06/11 09:43:52;;;;;;;5.80;3.10;;;24.20;59.30;;;;;;6092554;23;20030;-71
2023/06/11 09:46:38;;;;;;;4.70;2.78;;;24.30;60.50;;;;;;6093117;23;20034;-71
2023/06/11 09:49:25;;;;;;;5.15;3.55;;;24.40;59.70;;;;;;6088548;23;20017;-71
2023/06/11 09:52:11;;;;;;;5.70;3.22;;;24.50;59.10;;;;;;6091950;23;20078;-70
2023/06/11 09:54:59;;;;;;;5.45;2.88;;;24.50;59.10;;;;;;6090666;23;20017;-71
2023/06/11 09:57:45;;;;;;;5.15;3.45;;;24.50;58.30;;;;;;6094194;23;20018;-72
2023/06/11 10:00:34;;;;;;;6.55;2.92;;;24.60;58.50;;;;;;6093699;23;20025;-70
2023/06/11 10:03:21;;;;;;;6.13;3.90;;;24.60;58.60;;;;;;6093934;23;20018;-70
2023/06/11 10:06:12;;;;;;;4.45;2.83;;;24.70;58.70;;;;;;6093082;23;20006;-71
2023/06/11 10:09:01;;;;;;;5.35;3.33;;;24.70;58.80;;;;;;6115089;23;20027;-71
2023/06/11 10:11:47;;;;;;;3.88;3.22;;;24.90;58.80;;;;;;6123463;23;20010;-70
2023/06/11 10:14:34;;;;;;;3.50;2.75;;;24.90;58.50;;;;;;6119895;23;20766;-71
2023/06/11 10:17:24;;;;;;;3.40;2.58;;;25.00;58.70;;;;;;6123573;23;20013;-71
2023/06/11 10:20:37;;;;;;;4.20;3.13;;;25.10;59.10;;;;;;6123190;23;20089;-71
2023/06/11 10:23:40;;;;;;;5.70;3.30;;;25.30;59.10;;;;;;6123755;23;20754;-72
2023/06/11 10:26:33;;;;;;;4.53;3.00;;;25.40;58.60;;;;;;6122245;23;20037;-72
2023/06/11 10:29:26;;;;;;;6.03;2.75;;;25.50;57.90;;;;;;6120346;23;20010;-71
2023/06/11 10:32:22;;;;;;;5.40;3.20;;;25.60;57.90;;;;;;6121197;23;20045;-71
2023/06/11 10:35:22;;;;;;;6.47;3.28;;;25.70;57.10;;;;;;6122991;23;20009;-71
2023/06/11 10:38:13;;;;;;;5.57;3.10;;;25.80;56.50;;;;;;6123059;23;20480;-72
2023/06/11 10:41:03;;;;;;;5.47;3.45;;;25.90;56.60;;;;;;6123602;23;20010;-72
2023/06/11 10:43:49;;;;;;;3.95;2.90;;;26.00;57.00;;;;;;6120115;23;20084;-72
2023/06/11 10:46:54;;;;;;;6.03;3.60;;;26.10;56.80;;;;;;6120181;23;20089;-71
2023/06/11 10:49:40;;;;;;;5.22;3.60;;;26.30;56.40;;;;;;6124332;23;20014;-72
2023/06/11 10:52:26;;;;;;;4.93;3.40;;;26.50;55.70;;;;;;6124043;23;20014;-71
2023/06/11 10:55:13;;;;;;;5.40;3.80;;;26.50;54.90;;;;;;6121970;23;20021;-71
2023/06/11 10:58:00;;;;;;;6.15;3.17;;;26.60;55.30;;;;;;6122491;23;20065;-71
2023/06/11 11:00:47;;;;;;;5.82;3.33;;;26.60;54.90;;;;;;6124216;23;20061;-71
2023/06/11 11:03:34;;;;;;;6.82;3.05;;;26.60;55.20;;;;;;6121486;23;20033;-70
2023/06/11 11:06:28;;;;;;;6.55;3.17;;;26.60;55.00;;;;;;6120299;23;20010;-71
2023/06/11 11:09:21;;;;;;;4.07;3.08;;;26.70;55.20;;;;;;6122563;23;20010;-71
2023/06/11 11:12:07;;;;;;;5.53;3.42;;;26.80;55.60;;;;;;6122132;23;20335;-71
2023/06/11 11:14:53;;;;;;;6.15;3.33;;;27.00;55.40;;;;;;6120058;23;20014;-71
2023/06/11 11:17:40;;;;;;;6.55;3.58;;;27.20;55.20;;;;;;6120381;23;20017;-73
2023/06/11 11:20:26;;;;;;;5.40;3.15;;;27.30;54.70;;;;;;6121918;23;20024;-72
2023/06/11 11:23:12;;;;;;;5.07;3.53;;;27.40;54.90;;;;;;6118800;23;20125;-75
2023/06/11 11:25:58;;;;;;;6.07;3.13;;;27.50;54.30;;;;;;6119813;23;20014;-69
2023/06/11 11:28:45;;;;;;;4.80;3.55;;;27.50;54.10;;;;;;6120334;23;20116;-73
2023/06/11 11:31:31;;;;;;;7.07;3.67;;;27.50;53.70;;;;;;6108497;23;20355;-76
2023/06/11 11:34:18;;;;;;;5.57;3.45;;;27.70;53.90;;;;;;6120045;23;20014;-71
2023/06/11 11:37:04;;;;;;;6.13;4.13;;;27.80;54.10;;;;;;6115474;23;20033;-74
2023/06/11 11:39:52;;;;;;;5.25;3.22;;;28.00;54.20;;;;;;6119737;23;20014;-72
2023/06/11 11:42:49;;;;;;;6.95;3.40;;;28.10;53.70;;;;;;6119472;23;20006;-73
2023/06/11 11:45:35;;;;;;;4.38;3.13;;;28.10;53.40;;;;;;6121982;23;20010;-69
2023/06/11 11:48:21;;;;;;;5.45;3.88;;;28.00;53.20;;;;;;6121289;23;20013;-73
2023/06/11 11:51:07;;;;;;;4.90;3.25;;;27.90;53.40;;;;;;6121040;23;20017;-70
2023/06/11 11:53:53;;;;;;;6.20;3.88;;;27.80;53.90;;;;;;6122436;23;20014;-78
2023/06/11 11:56:39;;;;;;;6.10;3.72;;;27.70;53.70;;;;;;6120183;23;20022;-73
2023/06/11 11:59:25;;;;;;;6.40;3.70;;;27.70;53.60;;;;;;6120706;23;20013;-71
2023/06/11 12:02:11;;;;;;;5.43;3.40;;;27.80;53.90;;;;;;6099113;23;20428;-73
2023/06/11 12:05:00;;;;;;;6.15;3.85;;;27.80;54.20;;;;;;6121171;23;20018;-72
2023/06/11 12:07:52;;;;;;;8.25;4.15;;;27.80;54.40;;;;;;6121198;23;20030;-72
2023/06/11 12:10:38;;;;;;;6.55;4.03;;;27.80;53.90;;;;;;6119665;23;20014;-72
2023/06/11 12:13:24;;;;;;;6.68;3.70;;;27.80;54.60;;;;;;6120406;23;20018;-72
2023/06/11 12:16:10;;;;;;;5.07;3.85;;;27.80;54.20;;;;;;6121319;23;20038;-73
2023/06/11 12:18:58;;;;;;;4.88;3.70;;;27.90;54.30;;;;;;6121707;23;20014;-72
2023/06/11 12:21:45;;;;;;;6.22;3.90;;;27.90;54.40;;;;;;6121749;23;20013;-70
2023/06/11 12:24:32;;;;;;;7.03;4.18;;;27.80;54.50;;;;;;6120263;23;20344;-71
2023/06/11 12:27:18;;;;;;;6.80;3.95;;;27.60;54.80;;;;;;6120753;23;20391;-71
2023/06/11 12:30:05;;;;;;;6.15;4.05;;;27.50;55.20;;;;;;6119363;23;20329;-71
2023/06/11 12:32:52;;;;;;;6.22;4.38;;;27.40;55.50;;;;;;6119743;23;20018;-71
2023/06/11 12:35:38;;;;;;;8.57;4.70;;;27.50;56.00;;;;;;6117573;23;20108;-71
2023/06/11 12:38:24;;;;;;;11.55;4.45;;;27.60;56.00;;;;;;6116756;23;20097;-71
2023/06/11 12:41:11;;;;;;;11.98;4.88;;;27.60;56.10;;;;;;6118158;23;20014;-70
2023/06/11 12:44:00;;;;;;;4.80;3.53;;;27.50;56.60;;;;;;6120633;23;20029;-73
2023/06/11 12:46:47;;;;;;;6.80;4.20;;;27.50;56.80;;;;;;6120777;23;20014;-71
2023/06/11 12:49:33;;;;;;;4.57;4.15;;;27.60;56.50;;;;;;6121388;23;20017;-72
2023/06/11 12:52:20;;;;;;;9.02;5.10;;;27.60;56.60;;;;;;6121104;23;20021;-70
2023/06/11 12:55:06;;;;;;;6.43;4.88;;;27.80;56.50;;;;;;6119667;23;20010;-70
2023/06/11 12:57:53;;;;;;;9.38;4.80;;;27.80;56.40;;;;;;6121525;23;20014;-70
2023/06/11 13:00:39;;;;;;;6.43;4.53;;;27.80;56.80;;;;;;6122343;23;20014;-70
2023/06/11 13:03:25;;;;;;;6.75;4.55;;;27.90;56.70;;;;;;6119662;23;20014;-70
2023/06/11 13:06:12;;;;;;;5.50;4.70;;;28.00;56.60;;;;;;6121632;23;20049;-70
2023/06/11 13:08:58;;;;;;;5.75;4.32;;;28.10;56.20;;;;;;6121113;23;20021;-70
2023/06/11 13:11:45;;;;;;;11.48;5.05;;;28.00;56.60;;;;;;6122580;23;20101;-71
2023/06/11 13:14:31;;;;;;;6.57;3.95;;;28.10;56.60;;;;;;6121354;23;20013;-71
2023/06/11 13:17:17;;;;;;;7.47;4.70;;;28.30;56.40;;;;;;6121528;23;20014;-70
2023/06/11 13:20:03;;;;;;;5.10;4.50;;;28.40;56.40;;;;;;6118243;23;20006;-71
2023/06/11 13:22:49;;;;;;;6.05;4.55;;;28.50;56.30;;;;;;6118672;23;20021;-74
2023/06/11 13:25:36;;;;;;;5.75;4.38;;;28.60;56.00;;;;;;6120694;23;20678;-72
2023/06/11 13:28:22;;;;;;;6.32;4.75;;;28.70;55.80;;;;;;6119539;23;20021;-73
2023/06/11 13:31:08;;;;;;;5.68;4.60;;;28.80;55.30;;;;;;6121024;23;20013;-73
2023/06/11 13:33:54;;;;;;;6.93;4.57;;;29.00;54.90;;;;;;6112528;23;20020;-73
2023/06/11 13:36:41;;;;;;;6.45;4.47;;;29.10;54.60;;;;;;6120641;23;20006;-73
2023/06/11 13:39:27;;;;;;;5.35;4.00;;;29.30;54.60;;;;;;6120649;23;20017;-73
2023/06/11 13:42:13;;;;;;;7.63;4.70;;;29.40;54.30;;;;;;6118767;23;20041;-72
2023/06/11 13:45:05;;;;;;;5.15;4.53;;;29.60;54.00;;;;;;6118949;23;20401;-73
2023/06/11 13:47:51;;;;;;;5.68;4.47;;;29.70;54.20;;;;;;6119852;23;20509;-74
2023/06/11 13:50:37;;;;;;;5.65;4.53;;;29.80;53.60;;;;;;6120224;23;20436;-73
2023/06/11 13:53:23;;;;;;;7.22;4.20;;;29.90;53.20;;;;;;6119390;23;20010;-73
2023/06/11 13:56:09;;;;;;;5.40;4.20;;;29.90;53.30;;;;;;6120048;23;20014;-72
2023/06/11 13:58:55;;;;;;;5.60;4.57;;;30.00;52.60;;;;;;6119183;23;20042;-72
2023/06/11 14:01:42;;;;;;;5.47;3.83;;;30.00;52.20;;;;;;6120167;23;20121;-72
2023/06/11 14:04:28;;;;;;;4.88;3.80;;;30.00;52.10;;;;;;6121179;23;20061;-72
2023/06/11 14:07:14;;;;;;;5.13;4.18;;;30.00;52.20;;;;;;6117250;23;20018;-72
2023/06/11 14:10:04;;;;;;;9.98;5.07;;;30.00;52.60;;;;;;6118451;23;20021;-73
2023/06/11 14:12:50;;;;;;;9.50;4.18;;;29.90;52.20;;;;;;6122135;23;20014;-73
2023/06/11 14:15:36;;;;;;;8.20;4.75;;;29.80;51.90;;;;;;6096901;23;20010;-74
2023/06/11 14:18:22;;;;;;;4.95;4.05;;;29.70;51.60;;;;;;6117090;23;20024;-73
2023/06/11 14:21:08;;;;;;;6.35;4.38;;;29.60;51.60;;;;;;6117147;23;20018;-72
2023/06/11 14:23:54;;;;;;;10.45;5.05;;;29.50;51.50;;;;;;6111723;23;20025;-73
2023/06/11 14:26:40;;;;;;;6.18;4.47;;;29.30;51.50;;;;;;6120348;23;20042;-73
2023/06/11 14:29:26;;;;;;;6.78;4.20;;;29.20;51.50;;;;;;6120622;23;20043;-72